Time;durP1;ratioP1;P1;durP2;ratioP2;P2;SDS_P1;SDS_P2;PMS_P1;PMS_P2;Temp;Humidity;BMP_temperature;BMP_pressure;BME280_temperature;BME280_humidity;BME280_pressure;Samples;Min_cycle;Max_cycle;Signal;HPM_P1;HPM_P2
2022/01/20 00:00:13;;;;;;;;;;;;;;;;;;;;;
2022/01/20 00:08:47;;;;;;;;;;;;;;;;;;;;;
2022/01/20 00:41:14;;;;;;;;;;;;;;;;;;;;;
2022/01/20 01:23:38;;;;;;;;;;;;;;;;;;;;;
2022/01/20 01:43:39;;;;;;;;;;;4.40;99.90;;;;;;6277144;22;20226;-83
2022/01/20 01:52:16;;;;;;;;;;;;;;;;;;;;;
2022/01/20 02:00:30;;;;;;;;;;;;;;;;;;;;;
2022/01/20 02:25:04;;;;;;;;;;;3.30;99.90;;;;;;5935085;24;20286;-83
2022/01/20 02:32:45;;;;;;;;;;;;;;;;;;;;;
2022/01/20 02:45:02;;;;;;;;;;;5.00;99.90;;;;;;5943665;24;19927;-82
2022/01/20 02:57:12;;;;;;;;;;;;;;;;;;;;;
2022/01/20 03:16:04;;;;;;;;;;;3.20;99.90;;;;;;6022600;23;19909;-83
2022/01/20 03:23:39;;;;;;;;;;;3.80;99.90;;;;;;6083016;23;19922;-82
2022/01/20 03:31:31;;;;;;;;;;;2.70;99.90;;;;;;6119086;23;20338;-82
2022/01/20 03:35:07;;;;;;;;;;;2.90;99.90;;;;;;6055488;23;20358;-83
2022/01/20 03:38:51;;;;;;;;;;;1.70;99.90;;;;;;6027806;23;19945;-83
2022/01/20 03:42:03;;;;;;;;;;;4.00;99.90;;;;;;6031572;23;19918;-83
2022/01/20 03:46:13;;;;;;;;;;;1.70;99.90;;;;;;6029855;23;19942;-83
2022/01/20 03:54:06;;;;;;;;;;;;;;;;;;;;;
2022/01/20 03:57:37;;;;;;;;;;;1.50;99.90;;;;;;6013006;23;19926;-82
2022/01/20 04:09:32;;;;;;;;;;;;;;;;;;;;;
2022/01/20 04:13:21;;;;;;;;;;;;;;;;;;;;;
2022/01/20 04:17:27;;;;;;;;;;;2.90;99.90;;;;;;6031314;23;19922;-83
2022/01/20 04:25:23;;;;;;;;;;;1.40;99.90;;;;;;6085993;23;20408;-83
2022/01/20 04:28:56;;;;;;;;;;;;;;;;;;;;;
2022/01/20 04:37:02;;;;;;;;;;;5.30;99.90;;;;;;6056936;23;19947;-83
2022/01/20 04:40:18;;;;;;;;;;;;;;;;;;;;;
2022/01/20 05:04:01;;;;;;;;;;;;;;;;;;;;;
2022/01/20 05:07:24;;;;;;;;;;;2.80;99.90;;;;;;6009020;23;20457;-83
2022/01/20 05:11:02;;;;;;;;;;;;;;;;;;;;;
2022/01/20 05:14:12;;;;;;;;;;;3.00;99.90;;;;;;5924529;24;19922;-83
2022/01/20 05:17:37;;;;;;;;;;;2.60;99.90;;;;;;5915314;24;19918;-83
2022/01/20 05:25:02;;;;;;;;;;;2.00;99.90;;;;;;5921239;24;20029;-82
2022/01/20 05:28:59;;;;;;;;;;;;;;;;;;;;;
2022/01/20 05:32:31;;;;;;;;;;;2.60;99.90;;;;;;6041964;23;19933;-82
2022/01/20 05:36:42;;;;;;;;;;;;;;;;;;;;;
2022/01/20 05:44:51;;;;;;;;;;;;;;;;;;;;;
2022/01/20 05:52:42;;;;;;;;;;;;;;;;;;;;;
2022/01/20 05:56:20;;;;;;;;;;;3.10;99.90;;;;;;5884675;24;19933;-83
2022/01/20 06:00:25;;;;;;;;;;;;;;;;;;;;;
2022/01/20 06:04:15;;;;;;;;;;;;;;;;;;;;;
2022/01/20 06:11:48;;;;;;;;;;;1.50;99.90;;;;;;5873409;24;19918;-83
2022/01/20 06:19:14;;;;;;;;;;;3.10;99.90;;;;;;5791108;24;19919;-83
2022/01/20 06:22:17;;;;;;;;;;;4.10;99.90;;;;;;5865646;24;19912;-82
2022/01/20 06:29:27;;;;;;;;;;;3.30;99.90;;;;;;5877273;24;20558;-83
2022/01/20 06:40:32;;;;;;;;;;;;;;;;;;;;;
2022/01/20 06:44:36;;;;;;;;;;;;;;;;;;;;;
2022/01/20 06:48:02;;;;;;;;;;;;;;;;;;;;;
2022/01/20 06:51:59;;;;;;;;;;;2.00;99.90;;;;;;5893422;24;19934;-82
2022/01/20 06:55:49;;;;;;;;;;;1.60;99.90;;;;;;5853046;24;19924;-82
2022/01/20 06:59:58;;;;;;;;;;;2.90;99.90;;;;;;5852857;24;19923;-83
2022/01/20 07:02:53;;;;;;;;;;;2.40;99.90;;;;;;5942497;24;19927;-82
2022/01/20 07:05:39;;;;;;;;;;;2.50;99.90;;;;;;5931341;24;20026;-82
2022/01/20 07:11:35;;;;;;;;;;;2.20;99.90;;;;;;5954122;24;19922;-81
2022/01/20 07:14:04;;;;;;;;;;;2.70;99.90;;;;;;5943110;24;19937;-82
2022/01/20 07:21:36;;;;;;;;;;;2.30;99.90;;;;;;5903570;24;19934;-82
2022/01/20 07:25:11;;;;;;;;;;;1.10;99.90;;;;;;5818177;24;19929;-82
2022/01/20 07:28:47;;;;;;;;;;;2.10;99.90;;;;;;5811280;24;19911;-83
2022/01/20 07:36:25;;;;;;;;;;;;;;;;;;;;;
2022/01/20 07:42:48;;;;;;;;;;;2.10;99.90;;;;;;5892016;24;19916;-84
2022/01/20 07:46:14;;;;;;;;;;;2.20;99.90;;;;;;5867680;24;19918;-84
2022/01/20 07:49:08;;;;;;;;;;;2.10;99.90;;;;;;5889206;24;19934;-86
2022/01/20 07:51:52;;;;;;;;;;;2.10;99.90;;;;;;5887711;24;20227;-83
2022/01/20 07:54:34;;;;;;;;;;;2.50;99.90;;;;;;5885676;24;19934;-83
2022/01/20 07:57:21;;;;;;;;;;;2.40;99.90;;;;;;5939502;24;19920;-82
2022/01/20 08:00:09;;;;;;;;;;;2.30;99.90;;;;;;5921358;24;19923;-83
2022/01/20 08:02:43;;;;;;;;;;;2.30;99.90;;;;;;5945947;24;19926;-82
2022/01/20 08:05:36;;;;;;;;;;;2.30;99.90;;;;;;5944505;24;19937;-83
2022/01/20 08:08:05;;;;;;;;;;;2.30;99.90;;;;;;5922430;24;19929;-83
2022/01/20 08:10:36;;;;;;;;;;;2.30;99.90;;;;;;5946612;24;19911;-82
2022/01/20 08:13:05;;;;;;;;;;;2.30;99.90;;;;;;5920085;24;19930;-83
2022/01/20 08:15:36;;;;;;;;;;;1.70;99.90;;;;;;5943603;24;19931;-82
2022/01/20 08:18:07;;;;;;;;;;;2.30;99.90;;;;;;5948420;24;19929;-82
2022/01/20 08:20:38;;;;;;;;;;;2.30;99.90;;;;;;5941022;24;19911;-84
2022/01/20 08:23:10;;;;;;;;;;;2.40;99.90;;;;;;5941782;24;19934;-82
2022/01/20 08:25:40;;;;;;;;;;;2.40;99.90;;;;;;5916114;24;20021;-82
2022/01/20 08:28:08;;;;;;;;;;;2.40;99.90;;;;;;5918468;24;19923;-82
2022/01/20 08:31:04;;;;;;;;;;;2.60;99.90;;;;;;5951410;24;19927;-82
2022/01/20 08:37:21;;;;;;;;;;;2.40;99.90;;;;;;5942150;24;19928;-83
2022/01/20 08:39:50;;;;;;;;;;;2.60;99.90;;;;;;5955457;24;19933;-82
2022/01/20 08:42:18;;;;;;;;;;;2.60;99.90;;;;;;5967718;24;19927;-83
2022/01/20 08:44:48;;;;;;;;;;;2.70;99.90;;;;;;5942454;24;19933;-84
2022/01/20 08:47:26;;;;;;;;;;;2.70;99.90;;;;;;5966924;24;19937;-84
2022/01/20 08:49:54;;;;;;;;;;;2.90;99.90;;;;;;5944566;24;19931;-82
2022/01/20 08:52:22;;;;;;;;;;;2.80;99.90;;;;;;5943841;24;19937;-82
2022/01/20 08:54:53;;;;;;;;;;;2.70;99.90;;;;;;5943733;24;19922;-82
2022/01/20 08:57:44;;;;;;;;;;;2.50;99.90;;;;;;5944554;24;19933;-83
2022/01/20 09:00:20;;;;;;;;;;;2.90;99.90;;;;;;5975777;24;19937;-82
2022/01/20 09:03:00;;;;;;;;;;;2.70;99.90;;;;;;5969366;24;19923;-82
2022/01/20 09:05:29;;;;;;;;;;;3.00;99.90;;;;;;5977380;24;20006;-81
2022/01/20 09:08:13;;;;;;;;;;;3.10;99.90;;;;;;5974822;24;19923;-82
2022/01/20 09:10:55;;;;;;;;;;;3.10;99.90;;;;;;5967587;24;19923;-82
2022/01/20 09:16:16;;;;;;;;;;;2.60;99.90;;;;;;5965536;24;19933;-82
2022/01/20 09:18:51;;;;;;;;;;;3.20;99.90;;;;;;5943073;24;19939;-85
2022/01/20 09:21:23;;;;;;;;;;;3.30;99.90;;;;;;5943299;24;19948;-83
2022/01/20 09:23:56;;;;;;;;;;;3.60;99.90;;;;;;5965476;24;19922;-83
2022/01/20 09:26:24;;;;;;;;;;;3.40;99.90;;;;;;5977134;24;19937;-83
2022/01/20 09:28:55;;;;;;;;;;;3.40;99.90;;;;;;5967215;24;19927;-82
2022/01/20 09:31:30;;;;;;;;;;;3.50;99.90;;;;;;5970150;24;19923;-83
2022/01/20 09:33:58;;;;;;;;;;;3.50;99.90;;;;;;5978606;24;19923;-83
2022/01/20 09:36:30;;;;;;;;;;;3.50;99.90;;;;;;5946598;24;20296;-82
2022/01/20 09:38:59;;;;;;;;;;;3.60;99.90;;;;;;5971369;24;19910;-84
2022/01/20 09:41:47;;;;;;;;;;;4.80;99.90;;;;;;5972291;24;19927;-83
2022/01/20 09:44:16;;;;;;;;;;;3.60;99.90;;;;;;5943637;24;19946;-83
2022/01/20 09:46:45;;;;;;;;;;;3.70;99.90;;;;;;5975744;24;19927;-83
2022/01/20 09:49:39;;;;;;;;;;;3.70;99.90;;;;;;5982308;23;19929;-82
2022/01/20 09:52:22;;;;;;;;;;;3.70;99.90;;;;;;5977532;24;19922;-84
2022/01/20 09:54:58;;;;;;;;;;;3.70;99.90;;;;;;5966411;24;19931;-83
2022/01/20 09:57:27;;;;;;;;;;;3.50;99.90;;;;;;5943034;24;19926;-83
2022/01/20 09:59:55;;;;;;;;;;;2.90;99.90;;;;;;5967979;24;19966;-84
2022/01/20 10:02:25;;;;;;;;;;;3.80;99.90;;;;;;6014536;23;19925;-84
2022/01/20 10:04:57;;;;;;;;;;;3.80;99.90;;;;;;6065204;23;19926;-82
2022/01/20 10:07:31;;;;;;;;;;;3.90;99.90;;;;;;6044202;23;19921;-83
2022/01/20 10:10:04;;;;;;;;;;;3.90;99.90;;;;;;6056104;23;19929;-83
2022/01/20 10:13:03;;;;;;;;;;;5.60;99.90;;;;;;6034946;23;19921;-83
2022/01/20 10:16:13;;;;;;;;;;;4.00;99.90;;;;;;6061163;23;20222;-84
2022/01/20 10:18:54;;;;;;;;;;;4.00;99.90;;;;;;6115758;23;19924;-84
2022/01/20 10:21:29;;;;;;;;;;;4.00;99.90;;;;;;6176124;23;19930;-83
2022/01/20 10:24:08;;;;;;;;;;;4.10;99.90;;;;;;6150362;23;19927;-84
2022/01/20 10:27:10;;;;;;;;;;;4.10;99.90;;;;;;6119710;23;19925;-84
2022/01/20 10:29:53;;;;;;;;;;;4.10;99.90;;;;;;6125599;23;19924;-83
2022/01/20 10:32:23;;;;;;;;;;;4.10;99.90;;;;;;6124414;23;19924;-84
2022/01/20 10:35:00;;;;;;;;;;;4.20;99.90;;;;;;6174984;23;20259;-83
2022/01/20 10:37:29;;;;;;;;;;;4.20;99.90;;;;;;6208079;23;19920;-84
2022/01/20 10:40:06;;;;;;;;;;;4.30;99.90;;;;;;6134176;23;19927;-84
2022/01/20 10:42:39;;;;;;;;;;;4.60;99.90;;;;;;6144418;23;20060;-83
2022/01/20 10:45:07;;;;;;;;;;;6.30;99.90;;;;;;6117582;23;20342;-84
2022/01/20 10:47:36;;;;;;;;;;;4.50;99.90;;;;;;6152010;23;19921;-82
2022/01/20 10:50:21;;;;;;;;;;;4.40;99.90;;;;;;6142821;23;19920;-83
2022/01/20 10:52:58;;;;;;;;;;;4.50;99.90;;;;;;6094626;23;19927;-83
2022/01/20 10:55:34;;;;;;;;;;;4.50;99.90;;;;;;6155178;23;20341;-85
2022/01/20 10:58:11;;;;;;;;;;;4.70;99.90;;;;;;6120872;23;19924;-84
2022/01/20 11:00:41;;;;;;;;;;;4.60;99.90;;;;;;6120842;23;19927;-84
2022/01/20 11:03:08;;;;;;;;;;;3.40;99.90;;;;;;6174342;23;19927;-83
2022/01/20 11:05:40;;;;;;;;;;;4.60;99.90;;;;;;6157082;23;19920;-84
2022/01/20 11:08:11;;;;;;;;;;;4.60;99.90;;;;;;6118080;23;19927;-84
2022/01/20 11:10:42;;;;;;;;;;;4.70;99.90;;;;;;6228419;22;19919;-83
2022/01/20 11:13:30;;;;;;;;;;;4.70;99.90;;;;;;6243738;22;19926;-84
2022/01/20 11:15:59;;;;;;;;;;;4.70;99.90;;;;;;6241373;22;19929;-84
2022/01/20 11:18:29;;;;;;;;;;;4.80;99.90;;;;;;6241202;22;19923;-85
2022/01/20 11:21:06;;;;;;;;;;;4.80;99.90;;;;;;6241709;22;19934;-84
2022/01/20 11:23:42;;;;;;;;;;;4.90;99.90;;;;;;6266359;22;19930;-84
2022/01/20 11:26:28;;;;;;;;;;;4.90;99.90;;;;;;6302541;22;19919;-83
2022/01/20 11:29:21;;;;;;;;;;;5.20;99.90;;;;;;6218430;22;19932;-84
2022/01/20 11:32:24;;;;;;;;;;;5.00;99.90;;;;;;6281497;22;19930;-83
2022/01/20 11:35:02;;;;;;;;;;;5.00;99.90;;;;;;6241899;22;19923;-84
2022/01/20 11:37:34;;;;;;;;;;;5.00;99.90;;;;;;6264258;22;20330;-82
2022/01/20 11:40:10;;;;;;;;;;;5.10;99.90;;;;;;6263555;22;19937;-82
2022/01/20 11:42:38;;;;;;;;;;;5.10;99.90;;;;;;6241045;22;19937;-83
2022/01/20 11:45:24;;;;;;;;;;;5.20;99.90;;;;;;6251156;22;19923;-84
2022/01/20 11:47:56;;;;;;;;;;;5.30;99.90;;;;;;6241478;22;19926;-83
2022/01/20 11:50:24;;;;;;;;;;;5.20;99.90;;;;;;6240095;22;20392;-84
2022/01/20 11:52:52;;;;;;;;;;;5.20;99.90;;;;;;6277146;22;19958;-83
2022/01/20 11:55:28;;;;;;;;;;;5.20;99.90;;;;;;6296007;22;19919;-83
2022/01/20 11:57:56;;;;;;;;;;;5.30;99.90;;;;;;6240519;22;19919;-82
2022/01/20 12:00:28;;;;;;;;;;;5.30;99.90;;;;;;6275650;22;19927;-84
2022/01/20 12:03:07;;;;;;;;;;;4.80;99.90;;;;;;6250805;22;19926;-84
2022/01/20 12:05:44;;;;;;;;;;;5.40;99.90;;;;;;6239913;22;20342;-82
2022/01/20 12:08:24;;;;;;;;;;;5.30;99.90;;;;;;6241519;22;19923;-83
2022/01/20 12:11:07;;;;;;;;;;;5.50;99.90;;;;;;6268919;22;19919;-82
2022/01/20 12:13:57;;;;;;;;;;;5.50;99.90;;;;;;6269715;22;19925;-83
2022/01/20 12:16:30;;;;;;;;;;;5.50;99.90;;;;;;6241833;22;19920;-82
2022/01/20 12:18:59;;;;;;;;;;;5.50;99.90;;;;;;6242505;22;19919;-82
2022/01/20 12:21:30;;;;;;;;;;;5.60;99.90;;;;;;6266987;22;19920;-82
2022/01/20 12:23:59;;;;;;;;;;;4.40;99.90;;;;;;6275640;22;19919;-83
2022/01/20 12:26:34;;;;;;;;;;;5.60;99.90;;;;;;6240248;22;19919;-81
2022/01/20 12:29:09;;;;;;;;;;;5.70;99.90;;;;;;6269627;22;19929;-82
2022/01/20 12:31:48;;;;;;;;;;;5.70;99.90;;;;;;6294243;22;19927;-82
2022/01/20 12:34:19;;;;;;;;;;;6.00;99.90;;;;;;6213039;22;19924;-83
2022/01/20 12:36:53;;;;;;;;;;;5.80;99.90;;;;;;6301079;22;19929;-83
2022/01/20 12:39:28;;;;;;;;;;;5.80;99.90;;;;;;6302929;22;19919;-83
2022/01/20 12:41:57;;;;;;;;;;;5.80;99.90;;;;;;6269370;22;19918;-82
2022/01/20 12:44:46;;;;;;;;;;;5.90;99.90;;;;;;6305367;22;19927;-83
2022/01/20 12:47:15;;;;;;;;;;;5.90;99.90;;;;;;6294652;22;19929;-82
2022/01/20 12:49:44;;;;;;;;;;;5.90;99.90;;;;;;6322562;22;19937;-82
2022/01/20 12:52:15;;;;;;;;;;;5.90;99.90;;;;;;6317456;22;19923;-82
2022/01/20 12:54:43;;;;;;;;;;;5.90;99.90;;;;;;6293179;22;19919;-82
2022/01/20 12:57:12;;;;;;;;;;;6.10;99.90;;;;;;6293747;22;20343;-82
2022/01/20 12:59:41;;;;;;;;;;;6.20;99.90;;;;;;6290908;22;19919;-83
2022/01/20 13:02:11;;;;;;;;;;;6.20;99.90;;;;;;6317676;22;19919;-83
2022/01/20 13:04:59;;;;;;;;;;;6.40;99.90;;;;;;6320546;22;19926;-83
2022/01/20 13:07:37;;;;;;;;;;;6.70;99.90;;;;;;6293680;22;19923;-83
2022/01/20 13:10:34;;;;;;;;;;;6.70;99.90;;;;;;6274344;22;19929;-83
2022/01/20 13:13:05;;;;;;;;;;;6.90;99.90;;;;;;6271774;22;19923;-82
2022/01/20 13:15:34;;;;;;;;;;;7.00;99.90;;;;;;6280360;22;19919;-83
2022/01/20 13:18:07;;;;;;;;;;;6.90;99.90;;;;;;6306369;22;19927;-83
2022/01/20 13:20:42;;;;;;;;;;;6.70;99.90;;;;;;6325490;22;19923;-83
2022/01/20 13:26:01;;;;;;;;;;;6.70;99.90;;;;;;6324839;22;19919;-84
2022/01/20 13:28:29;;;;;;;;;;;6.60;99.90;;;;;;6272270;22;19923;-83
2022/01/20 13:31:11;;;;;;;;;;;5.60;99.90;;;;;;6246004;22;19925;-84
2022/01/20 13:33:39;;;;;;;;;;;6.70;99.90;;;;;;6280678;22;20091;-83
2022/01/20 13:36:07;;;;;;;;;;;6.80;99.90;;;;;;6273802;22;19929;-84
2022/01/20 13:38:40;;;;;;;;;;;6.60;99.90;;;;;;6269269;22;19923;-83
2022/01/20 13:41:22;;;;;;;;;;;6.60;99.90;;;;;;6245661;22;19923;-83
2022/01/20 13:46:42;;;;;;;;;;;6.70;99.90;;;;;;6272836;22;20486;-84
2022/01/20 13:49:11;;;;;;;;;;;6.70;99.90;;;;;;6296161;22;19929;-84
2022/01/20 13:51:40;;;;;;;;;;;6.70;99.90;;;;;;6240750;22;20140;-84
2022/01/20 13:54:09;;;;;;;;;;;6.80;99.90;;;;;;6243728;22;19929;-83
2022/01/20 13:56:37;;;;;;;;;;;6.70;99.90;;;;;;6268121;22;19934;-84
2022/01/20 13:59:10;;;;;;;;;;;6.70;99.90;;;;;;6295843;22;19925;-83
2022/01/20 14:01:58;;;;;;;;;;;6.20;99.90;;;;;;6279241;22;19933;-83
2022/01/20 14:04:26;;;;;;;;;;;6.30;99.90;;;;;;6239385;22;20288;-84
2022/01/20 14:06:55;;;;;;;;;;;6.60;99.90;;;;;;6266105;22;19925;-84
2022/01/20 14:09:24;;;;;;;;;;;6.60;99.90;;;;;;6292941;22;20075;-83
2022/01/20 14:11:53;;;;;;;;;;;6.60;99.90;;;;;;6240025;22;19920;-83
2022/01/20 14:14:24;;;;;;;;;;;6.60;99.90;;;;;;6293005;22;19919;-83
2022/01/20 14:16:54;;;;;;;;;;;6.50;99.90;;;;;;6212535;22;19924;-83
2022/01/20 14:19:23;;;;;;;;;;;6.60;99.90;;;;;;6264365;22;19923;-84
2022/01/20 14:21:52;;;;;;;;;;;6.40;99.90;;;;;;6238392;22;19934;-83
2022/01/20 14:24:19;;;;;;;;;;;6.40;99.90;;;;;;6274604;22;19929;-84
2022/01/20 14:26:48;;;;;;;;;;;6.40;99.90;;;;;;6301392;22;19919;-84
2022/01/20 14:29:17;;;;;;;;;;;6.40;99.90;;;;;;6263063;22;19920;-83
2022/01/20 14:31:46;;;;;;;;;;;6.40;99.90;;;;;;6270065;22;19923;-83
2022/01/20 14:34:29;;;;;;;;;;;6.40;99.90;;;;;;6240174;22;19926;-84
2022/01/20 14:37:28;;;;;;;;;;;6.90;99.90;;;;;;6267094;22;19923;-83
2022/01/20 14:40:41;;;;;;;;;;;6.60;99.90;;;;;;6233756;22;19920;-84
2022/01/20 14:43:51;;;;;;;;;;;6.00;99.90;;;;;;6293433;22;19919;-82
2022/01/20 14:47:01;;;;;;;;;;;6.50;99.90;;;;;;6229966;22;20423;-84
2022/01/20 14:50:14;;;;;;;;;;;;;;;;;;;;;
2022/01/20 14:53:22;;;;;;;;;;;6.50;99.90;;;;;;6250964;22;19916;-83
2022/01/20 14:56:17;;;;;;;;;;;6.50;99.90;;;;;;6265184;22;19941;-83
2022/01/20 14:59:09;;;;;;;;;;;6.40;99.90;;;;;;6265304;22;20409;-83
2022/01/20 15:01:50;;;;;;;;;;;6.20;99.90;;;;;;6264594;22;19929;-83
2022/01/20 15:05:09;;;;;;;;;;;6.20;99.90;;;;;;6240905;22;19923;-83
2022/01/20 15:07:50;;;;;;;;;;;8.30;99.90;;;;;;6264299;22;19930;-83
2022/01/20 15:10:30;;;;;;;;;;;6.00;99.90;;;;;;6216599;22;19923;-87
2022/01/20 15:13:01;;;;;;;;;;;6.30;99.90;;;;;;6264216;22;19923;-83
2022/01/20 15:15:31;;;;;;;;;;;5.90;99.90;;;;;;6247539;22;19931;-83
2022/01/20 15:18:04;;;;;;;;;;;5.90;99.90;;;;;;6242617;22;19949;-84
2022/01/20 15:20:57;;;;;;;;;;;6.10;99.90;;;;;;6250831;22;19933;-85
2022/01/20 15:23:30;;;;;;;;;;;5.70;99.90;;;;;;6244108;22;19919;-83
2022/01/20 15:26:09;;;;;;;;;;;5.80;99.90;;;;;;6243528;22;19929;-81
2022/01/20 15:28:42;;;;;;;;;;;5.80;99.90;;;;;;6243595;22;19919;-83
2022/01/20 15:31:13;;;;;;;;;;;6.30;99.90;;;;;;6294432;22;20323;-85
2022/01/20 15:33:45;;;;;;;;;;;7.40;99.90;;;;;;6268961;22;19919;-84
2022/01/20 15:36:15;;;;;;;;;;;5.90;99.90;;;;;;6218679;22;19923;-83
2022/01/20 15:38:53;;;;;;;;;;;5.90;99.90;;;;;;6223810;22;19919;-83
2022/01/20 15:41:36;;;;;;;;;;;5.80;99.90;;;;;;6250003;22;19923;-84
2022/01/20 15:44:12;;;;;;;;;;;5.80;99.90;;;;;;6256381;22;19919;-86
2022/01/20 15:46:46;;;;;;;;;;;5.80;99.90;;;;;;6245217;22;19926;-83
2022/01/20 15:49:26;;;;;;;;;;;5.70;99.90;;;;;;6221549;22;19919;-85
2022/01/20 15:52:01;;;;;;;;;;;6.80;99.90;;;;;;6307884;22;19903;-83
2022/01/20 15:54:31;;;;;;;;;;;5.70;99.90;;;;;;6283519;22;19907;-85
2022/01/20 15:57:02;;;;;;;;;;;5.60;99.90;;;;;;6243988;22;19934;-85
2022/01/20 15:59:33;;;;;;;;;;;5.70;99.90;;;;;;6278789;22;20683;-82
2022/01/20 16:02:03;;;;;;;;;;;5.60;99.90;;;;;;6240935;22;19923;-85
2022/01/20 16:04:33;;;;;;;;;;;5.50;99.90;;;;;;6241905;22;19919;-86
2022/01/20 16:07:04;;;;;;;;;;;5.50;99.90;;;;;;6241323;22;19919;-84
2022/01/20 16:09:36;;;;;;;;;;;5.40;99.90;;;;;;6239076;22;20243;-85
2022/01/20 16:12:05;;;;;;;;;;;4.10;99.90;;;;;;6239158;22;19919;-83
2022/01/20 16:14:35;;;;;;;;;;;5.40;99.90;;;;;;6267021;22;19919;-85
2022/01/20 16:17:04;;;;;;;;;;;5.60;99.90;;;;;;6233208;22;19919;-86
2022/01/20 16:19:33;;;;;;;;;;;5.50;99.90;;;;;;6242826;22;19919;-85
2022/01/20 16:22:09;;;;;;;;;;;5.10;99.90;;;;;;6246075;22;19923;-87
2022/01/20 16:24:42;;;;;;;;;;;3.40;99.90;;;;;;6299298;22;19923;-86
2022/01/20 16:27:16;;;;;;;;;;;5.10;99.90;;;;;;6257629;22;19917;-85
2022/01/20 16:29:45;;;;;;;;;;;5.00;99.90;;;;;;6243357;22;19923;-84
2022/01/20 16:32:19;;;;;;;;;;;5.00;99.90;;;;;;6217965;22;19933;-86
2022/01/20 16:34:47;;;;;;;;;;;5.10;99.90;;;;;;6217291;22;19919;-86
2022/01/20 16:37:20;;;;;;;;;;;5.00;99.90;;;;;;6215611;22;19911;-84
2022/01/20 16:39:51;;;;;;;;;;;5.30;99.90;;;;;;6270290;22;19923;-84
2022/01/20 16:42:20;;;;;;;;;;;5.00;99.90;;;;;;6241629;22;19929;-83
2022/01/20 16:44:49;;;;;;;;;;;5.00;99.90;;;;;;6241433;22;19923;-82
2022/01/20 16:47:16;;;;;;;;;;;4.90;99.90;;;;;;6244445;22;19929;-84
2022/01/20 16:49:46;;;;;;;;;;;4.90;99.90;;;;;;6276802;22;19923;-83
2022/01/20 16:52:15;;;;;;;;;;;4.90;99.90;;;;;;6265345;22;19919;-83
2022/01/20 16:54:44;;;;;;;;;;;4.90;99.90;;;;;;6248818;22;20280;-83
2022/01/20 16:57:14;;;;;;;;;;;4.90;99.90;;;;;;6268310;22;19919;-84
2022/01/20 16:59:42;;;;;;;;;;;5.10;99.90;;;;;;6244257;22;19923;-84
2022/01/20 17:02:19;;;;;;;;;;;4.90;99.90;;;;;;6242763;22;19919;-85
2022/01/20 17:04:48;;;;;;;;;;;4.90;99.90;;;;;;6267162;22;19919;-84
2022/01/20 17:07:22;;;;;;;;;;;4.70;99.90;;;;;;6243480;22;19924;-84
2022/01/20 17:09:53;;;;;;;;;;;4.80;99.90;;;;;;6297986;22;19927;-83
2022/01/20 17:12:22;;;;;;;;;;;4.80;99.90;;;;;;6242225;22;19923;-84
2022/01/20 17:14:51;;;;;;;;;;;4.80;99.90;;;;;;6240343;22;19933;-86
2022/01/20 17:17:20;;;;;;;;;;;4.80;99.90;;;;;;6239237;22;19933;-84
2022/01/20 17:19:48;;;;;;;;;;;5.00;99.90;;;;;;6239699;22;19923;-83
2022/01/20 17:22:17;;;;;;;;;;;4.80;99.90;;;;;;6238902;22;19919;-85
2022/01/20 17:24:45;;;;;;;;;;;4.80;99.90;;;;;;6240589;22;19907;-83
2022/01/20 17:27:18;;;;;;;;;;;4.80;99.90;;;;;;6242575;22;19933;-85
2022/01/20 17:29:47;;;;;;;;;;;4.70;99.90;;;;;;6242509;22;19923;-85
2022/01/20 17:32:16;;;;;;;;;;;4.70;99.90;;;;;;6265117;22;19926;-86
2022/01/20 17:34:45;;;;;;;;;;;4.70;99.90;;;;;;6239322;22;20198;-84
2022/01/20 17:37:19;;;;;;;;;;;4.70;99.90;;;;;;6242013;22;19941;-85
2022/01/20 17:39:51;;;;;;;;;;;4.70;99.90;;;;;;6265243;22;19923;-86
2022/01/20 17:42:21;;;;;;;;;;;4.60;99.90;;;;;;6215748;22;19925;-86
2022/01/20 17:44:50;;;;;;;;;;;4.60;99.90;;;;;;6265656;22;19923;-84
2022/01/20 17:47:17;;;;;;;;;;;4.70;99.90;;;;;;6239745;22;19923;-84
2022/01/20 17:49:47;;;;;;;;;;;4.50;99.90;;;;;;6243041;22;19930;-85
2022/01/20 17:52:16;;;;;;;;;;;4.60;99.90;;;;;;6244262;22;19908;-87
2022/01/20 17:54:46;;;;;;;;;;;4.60;99.90;;;;;;6219029;22;19933;-89
2022/01/20 17:57:17;;;;;;;;;;;4.50;99.90;;;;;;6218887;22;19926;-87
2022/01/20 17:59:55;;;;;;;;;;;4.50;99.90;;;;;;6273582;22;19925;-88
2022/01/20 18:02:36;;;;;;;;;;;4.30;99.90;;;;;;6245712;22;19919;-89
2022/01/20 18:08:54;;;;;;;;;;;4.60;99.90;;;;;;6276018;22;19910;-89
2022/01/20 18:11:26;;;;;;;;;;;4.50;99.90;;;;;;6273492;22;19907;-86
2022/01/20 18:14:22;;;;;;;;;;;4.80;99.90;;;;;;6250864;22;19963;-88
2022/01/20 18:16:51;;;;;;;;;;;4.50;99.90;;;;;;6270535;22;19924;-87
2022/01/20 18:19:30;;;;;;;;;;;4.60;99.90;;;;;;6248327;22;19926;-85
2022/01/20 18:22:08;;;;;;;;;;;4.80;99.90;;;;;;6246459;22;19927;-83
2022/01/20 18:24:56;;;;;;;;;;;4.70;99.90;;;;;;6272037;22;19923;-85
2022/01/20 18:27:42;;;;;;;;;;;5.00;99.90;;;;;;6268437;22;19923;-81
2022/01/20 18:30:21;;;;;;;;;;;4.70;99.90;;;;;;6243387;22;19923;-83
2022/01/20 18:33:21;;;;;;;;;;;4.70;99.90;;;;;;6267213;22;19933;-85
2022/01/20 18:36:17;;;;;;;;;;;4.70;99.90;;;;;;6244617;22;19923;-85
2022/01/20 18:38:53;;;;;;;;;;;4.80;99.90;;;;;;6244967;22;19920;-85
2022/01/20 18:41:25;;;;;;;;;;;4.80;99.90;;;;;;6222892;22;19919;-85
2022/01/20 18:47:14;;;;;;;;;;;4.80;99.90;;;;;;6296718;22;19923;-84
2022/01/20 18:49:48;;;;;;;;;;;4.80;99.90;;;;;;6269662;22;19930;-84
2022/01/20 18:52:46;;;;;;;;;;;4.80;99.90;;;;;;6250038;22;19925;-87
2022/01/20 18:55:41;;;;;;;;;;;4.70;99.90;;;;;;6290458;22;19919;-84
2022/01/20 19:07:04;;;;;;;;;;;4.60;99.90;;;;;;6063530;23;19926;-85
2022/01/20 19:09:52;;;;;;;;;;;4.40;99.90;;;;;;6034726;23;19922;-82
2022/01/20 19:12:31;;;;;;;;;;;4.80;99.90;;;;;;6077120;23;19924;-83
2022/01/20 19:15:39;;;;;;;;;;;4.90;99.90;;;;;;6194563;23;19924;-81
2022/01/20 19:18:17;;;;;;;;;;;5.10;99.90;;;;;;6172157;23;19927;-81
2022/01/20 19:20:53;;;;;;;;;;;4.80;99.90;;;;;;6195711;23;19924;-82
2022/01/20 19:24:11;;;;;;;;;;;5.20;99.90;;;;;;6188152;23;19931;-82
2022/01/20 19:27:10;;;;;;;;;;;4.90;99.90;;;;;;6191993;23;19930;-82
2022/01/20 19:30:19;;;;;;;;;;;3.80;99.90;;;;;;6201528;23;20283;-83
2022/01/20 19:33:08;;;;;;;;;;;5.00;99.90;;;;;;6180086;23;19904;-82
2022/01/20 19:35:45;;;;;;;;;;;4.80;99.90;;;;;;6284496;22;19916;-82
2022/01/20 19:38:38;;;;;;;;;;;4.90;99.90;;;;;;6267420;22;20166;-83
2022/01/20 19:41:34;;;;;;;;;;;5.40;99.90;;;;;;6265129;22;19931;-82
2022/01/20 19:44:07;;;;;;;;;;;4.80;99.90;;;;;;6300574;22;19934;-81
2022/01/20 19:46:49;;;;;;;;;;;5.00;99.90;;;;;;6241284;22;20347;-83
2022/01/20 19:50:32;;;;;;;;;;;;;;;;;;;;;
2022/01/20 19:53:23;;;;;;;;;;;3.80;99.90;;;;;;6237557;22;19923;-81
2022/01/20 19:55:54;;;;;;;;;;;6.10;99.90;;;;;;6298618;22;19933;-82
2022/01/20 19:58:39;;;;;;;;;;;4.90;99.90;;;;;;6263546;22;19923;-81
2022/01/20 20:01:37;;;;;;;;;;;4.60;99.90;;;;;;6288001;22;20162;-83
2022/01/20 20:04:24;;;;;;;;;;;4.70;99.90;;;;;;6267245;22;19937;-83
2022/01/20 20:07:02;;;;;;;;;;;4.60;99.90;;;;;;6241476;22;19929;-80
2022/01/20 20:09:44;;;;;;;;;;;4.70;99.90;;;;;;6290843;22;19919;-80
2022/01/20 20:12:19;;;;;;;;;;;4.50;99.90;;;;;;6290217;22;20352;-80
2022/01/20 20:14:56;;;;;;;;;;;4.40;99.90;;;;;;6268337;22;19923;-83
2022/01/20 20:17:40;;;;;;;;;;;4.30;99.90;;;;;;6243706;22;19923;-81
2022/01/20 20:20:09;;;;;;;;;;;4.70;99.90;;;;;;6238147;22;19907;-82
2022/01/20 20:22:41;;;;;;;;;;;4.30;99.90;;;;;;6264648;22;20548;-80
2022/01/20 20:25:31;;;;;;;;;;;4.70;99.90;;;;;;6267389;22;19930;-81
2022/01/20 20:28:08;;;;;;;;;;;4.40;99.90;;;;;;6302636;22;19914;-81
2022/01/20 20:30:49;;;;;;;;;;;4.50;99.90;;;;;;6294204;22;19923;-81
2022/01/20 20:33:20;;;;;;;;;;;4.40;99.90;;;;;;6264437;22;19917;-81
2022/01/20 20:35:59;;;;;;;;;;;5.20;99.90;;;;;;6268179;22;19919;-81
2022/01/20 20:38:30;;;;;;;;;;;4.30;99.90;;;;;;6265811;22;19934;-81
2022/01/20 20:41:48;;;;;;;;;;;4.20;99.90;;;;;;6270021;22;19919;-80
2022/01/20 20:44:31;;;;;;;;;;;4.10;99.90;;;;;;6326961;22;19922;-83
2022/01/20 20:47:13;;;;;;;;;;;4.10;99.90;;;;;;6303398;22;19921;-81
2022/01/20 20:50:10;;;;;;;;;;;3.20;99.90;;;;;;6302073;22;20247;-81
2022/01/20 20:52:43;;;;;;;;;;;3.90;99.90;;;;;;6325848;22;19918;-82
2022/01/20 20:58:36;;;;;;;;;;;4.00;99.90;;;;;;6285775;22;19925;-81
2022/01/20 21:01:11;;;;;;;;;;;2.90;99.90;;;;;;6297343;22;19919;-83
2022/01/20 21:03:55;;;;;;;;;;;3.70;99.90;;;;;;6276077;22;19923;-81
2022/01/20 21:06:31;;;;;;;;;;;4.00;99.90;;;;;;6268759;22;19929;-81
2022/01/20 21:09:18;;;;;;;;;;;3.70;99.90;;;;;;6270208;22;19919;-83
2022/01/20 21:11:57;;;;;;;;;;;2.10;99.90;;;;;;6307318;22;19933;-81
2022/01/20 21:14:49;;;;;;;;;;;3.70;99.90;;;;;;6295937;22;19929;-81
2022/01/20 21:17:36;;;;;;;;;;;3.70;99.90;;;;;;6272757;22;19938;-81
2022/01/20 21:20:32;;;;;;;;;;;4.00;99.90;;;;;;6297288;22;19923;-81
2022/01/20 21:23:20;;;;;;;;;;;3.90;99.90;;;;;;6271185;22;19961;-82
2022/01/20 21:26:01;;;;;;;;;;;3.70;99.90;;;;;;6294473;22;20428;-80
2022/01/20 21:29:12;;;;;;;;;;;;;;;;;;;;;
2022/01/20 21:32:05;;;;;;;;;;;;;;;;;;;;;
2022/01/20 21:34:50;;;;;;;;;;;4.00;99.90;;;;;;6269013;22;19919;-82
2022/01/20 21:37:53;;;;;;;;;;;3.80;99.90;;;;;;6305020;22;19930;-82
2022/01/20 21:41:15;;;;;;;;;;;3.70;99.90;;;;;;6230429;22;19928;-81